Time,TemperatureF,DewpointF,PressureIn,WindDirection,WindDirectionDegrees,WindSpeedMPH,WindSpeedGustMPH,Humidity,HourlyPrecipIn,Conditions,Clouds,dailyrainin,SoftwareType,DateUTC
2014-01-21 00:12:00,27.0,-99.9,-100.00,North,6,25.0,35.0,-999,0.00,,,0.00,,2014-01-21 06:12:00,
2014-01-21 00:22:00,27.0,-99.9,-100.00,North,6,25.0,35.0,-999,0.00,,,0.00,,2014-01-21 06:22:00,
2014-01-21 00:42:00,25.0,-99.9,-100.00,North,9,24.0,33.0,-999,0.00,,,0.00,,2014-01-21 06:42:00,
2014-01-21 00:52:00,25.0,-99.9,-100.00,North,9,24.0,33.0,-999,0.00,,,0.00,,2014-01-21 06:52:00,
2014-01-21 01:11:00,21.0,-99.9,-100.00,North,353,21.0,29.0,-999,0.00,,,0.00,,2014-01-21 07:11:00,
2014-01-21 01:22:00,21.0,-99.9,-100.00,North,353,21.0,29.0,-999,0.00,,,0.00,,2014-01-21 07:22:00,
2014-01-21 01:42:00,20.0,-99.9,-100.00,NNE,12,27.0,34.0,-999,0.00,,,0.00,,2014-01-21 07:42:00,
2014-01-21 01:53:00,20.0,-99.9,-100.00,NNE,12,27.0,34.0,-999,0.00,,,0.00,,2014-01-21 07:53:00,
2014-01-21 02:12:00,19.0,-99.9,-100.00,North,8,22.0,30.0,-999,0.00,,,0.00,,2014-01-21 08:12:00,
2014-01-21 02:22:00,19.0,-99.9,-100.00,North,8,22.0,30.0,-999,0.00,,,0.00,,2014-01-21 08:22:00,
2014-01-21 02:42:00,18.0,-99.9,-100.00,North,9,18.0,26.0,-999,0.00,,,0.00,,2014-01-21 08:42:00,
2014-01-21 02:52:00,18.0,-99.9,-100.00,North,9,18.0,26.0,-999,0.00,,,0.00,,2014-01-21 08:52:00,
2014-01-21 03:11:00,18.0,-99.9,-100.00,North,2,17.0,22.0,-999,0.00,,,0.00,,2014-01-21 09:11:00,
2014-01-21 03:22:00,18.0,-99.9,-100.00,North,2,17.0,22.0,-999,0.00,,,0.00,,2014-01-21 09:22:00,
2014-01-21 03:43:00,17.0,-99.9,-100.00,North,359,24.0,38.0,-999,0.00,,,0.00,,2014-01-21 09:43:00,
2014-01-21 03:53:00,17.0,-99.9,-100.00,North,359,24.0,38.0,-999,0.00,,,0.00,,2014-01-21 09:53:00,
2014-01-21 04:13:00,15.0,-99.9,-100.00,North,1,22.0,33.0,-999,0.00,,,0.00,,2014-01-21 10:13:00,
2014-01-21 04:23:00,15.0,-99.9,-100.00,North,1,22.0,33.0,-999,0.00,,,0.00,,2014-01-21 10:23:00,
2014-01-21 04:42:00,15.0,-99.9,-100.00,North,349,12.0,22.0,-999,0.00,,,0.00,,2014-01-21 10:42:00,
2014-01-21 04:53:00,15.0,-99.9,-100.00,North,349,12.0,22.0,-999,0.00,,,0.00,,2014-01-21 10:53:00,
2014-01-21 05:12:00,13.0,-99.9,-100.00,North,4,18.0,24.0,-999,0.00,,,0.00,,2014-01-21 11:12:00,
2014-01-21 05:22:00,13.0,-99.9,-100.00,North,4,18.0,24.0,-999,0.00,,,0.00,,2014-01-21 11:22:00,
2014-01-21 05:42:00,13.0,-99.9,-100.00,North,353,16.0,23.0,-999,0.00,,,0.00,,2014-01-21 11:42:00,
2014-01-21 05:52:00,13.0,-99.9,-100.00,North,353,16.0,23.0,-999,0.00,,,0.00,,2014-01-21 11:52:00,
2014-01-21 06:11:00,12.0,-99.9,-100.00,NNW,340,13.0,18.0,-999,0.00,,,0.00,,2014-01-21 12:11:00,
2014-01-21 06:22:00,12.0,-99.9,-100.00,NNW,340,13.0,18.0,-999,0.00,,,0.00,,2014-01-21 12:22:00,
2014-01-21 06:42:00,10.0,-99.9,-100.00,NNW,340,14.0,19.0,-999,0.00,,,0.00,,2014-01-21 12:42:00,
2014-01-21 06:52:00,10.0,-99.9,-100.00,NNW,340,14.0,19.0,-999,0.00,,,0.00,,2014-01-21 12:52:00,
2014-01-21 07:11:00,8.0,-99.9,-100.00,NNW,332,12.0,21.0,-999,0.00,,,0.00,,2014-01-21 13:11:00,
2014-01-21 07:22:00,8.0,-99.9,-100.00,NNW,332,12.0,21.0,-999,0.00,,,0.00,,2014-01-21 13:22:00,
2014-01-21 07:42:00,7.0,-99.9,-100.00,NNW,329,11.0,16.0,-999,0.00,,,0.00,,2014-01-21 13:42:00,
2014-01-21 07:52:00,7.0,-99.9,-100.00,NNW,329,11.0,16.0,-999,0.00,,,0.00,,2014-01-21 13:52:00,
2014-01-21 08:11:00,6.0,-99.9,-100.00,North,358,12.0,16.0,-999,0.00,,,0.00,,2014-01-21 14:11:00,
2014-01-21 08:22:00,6.0,-99.9,-100.00,North,358,12.0,16.0,-999,0.00,,,0.00,,2014-01-21 14:22:00,
2014-01-21 08:42:00,6.0,-99.9,-100.00,NNW,347,10.0,17.0,-999,0.00,,,0.00,,2014-01-21 14:42:00,
2014-01-21 08:52:00,6.0,-99.9,-100.00,NNW,347,10.0,17.0,-999,0.00,,,0.00,,2014-01-21 14:52:00,
2014-01-21 09:11:00,5.0,-99.9,-100.00,North,351,12.0,17.0,-999,0.00,,,0.00,,2014-01-21 15:11:00,
2014-01-21 09:22:00,5.0,-99.9,-100.00,North,351,12.0,17.0,-999,0.00,,,0.00,,2014-01-21 15:22:00,
2014-01-21 09:43:00,5.0,-99.9,-100.00,North,358,14.0,18.0,-999,0.00,,,0.00,,2014-01-21 15:43:00,
2014-01-21 09:53:00,5.0,-99.9,-100.00,North,358,14.0,18.0,-999,0.00,,,0.00,,2014-01-21 15:53:00,
2014-01-21 10:13:00,6.0,-99.9,-100.00,North,3,10.0,14.0,-999,0.00,,,0.00,,2014-01-21 16:13:00,
2014-01-21 10:23:00,6.0,-99.9,-100.00,North,3,10.0,14.0,-999,0.00,,,0.00,,2014-01-21 16:23:00,
2014-01-21 10:43:00,6.0,-99.9,-100.00,NNW,345,9.0,12.0,-999,0.00,,,0.00,,2014-01-21 16:43:00,
2014-01-21 10:53:00,6.0,-99.9,-100.00,NNW,345,9.0,12.0,-999,0.00,,,0.00,,2014-01-21 16:53:00,
2014-01-21 11:12:00,6.0,-99.9,-100.00,NNW,330,7.0,13.0,-999,0.00,,,0.00,,2014-01-21 17:12:00,
2014-01-21 11:22:00,6.0,-99.9,-100.00,NNW,330,7.0,13.0,-999,0.00,,,0.00,,2014-01-21 17:22:00,
2014-01-21 11:42:00,7.0,-99.9,-100.00,NNW,331,7.0,10.0,-999,0.00,,,0.00,,2014-01-21 17:42:00,
2014-01-21 11:53:00,7.0,-99.9,-100.00,NNW,331,7.0,10.0,-999,0.00,,,0.00,,2014-01-21 17:53:00,
2014-01-21 12:12:00,7.0,-99.9,-100.00,NW,316,7.0,11.0,-999,0.00,,,0.00,,2014-01-21 18:12:00,
2014-01-21 12:22:00,7.0,-99.9,-100.00,NW,316,7.0,11.0,-999,0.00,,,0.00,,2014-01-21 18:22:00,
2014-01-21 12:42:00,8.0,-99.9,-100.00,NW,317,7.0,12.0,-999,0.00,,,0.00,,2014-01-21 18:42:00,
2014-01-21 12:52:00,8.0,-99.9,-100.00,NW,317,7.0,12.0,-999,0.00,,,0.00,,2014-01-21 18:52:00,
2014-01-21 13:11:00,8.0,-99.9,-100.00,NNW,333,8.0,12.0,-999,0.00,,,0.00,,2014-01-21 19:11:00,
2014-01-21 13:22:00,8.0,-99.9,-100.00,NNW,333,8.0,12.0,-999,0.00,,,0.00,,2014-01-21 19:22:00,
2014-01-21 13:42:00,9.0,-99.9,-100.00,NW,322,7.0,10.0,-999,0.00,,,0.00,,2014-01-21 19:42:00,
2014-01-21 13:52:00,9.0,-99.9,-100.00,NW,322,7.0,10.0,-999,0.00,,,0.00,,2014-01-21 19:52:00,
2014-01-21 14:11:00,9.0,-99.9,-100.00,NW,316,8.0,12.0,-999,0.00,,,0.00,,2014-01-21 20:11:00,
2014-01-21 14:22:00,9.0,-99.9,-100.00,NW,316,8.0,12.0,-999,0.00,,,0.00,,2014-01-21 20:22:00,
2014-01-21 14:42:00,10.0,-99.9,-100.00,NNW,331,7.0,10.0,-999,0.00,,,0.00,,2014-01-21 20:42:00,
2014-01-21 14:52:00,10.0,-99.9,-100.00,NNW,331,7.0,10.0,-999,0.00,,,0.00,,2014-01-21 20:52:00,
2014-01-21 15:11:00,10.0,-99.9,-100.00,NNW,338,6.0,10.0,-999,0.00,,,0.00,,2014-01-21 21:11:00,
2014-01-21 15:22:00,10.0,-99.9,-100.00,NNW,338,6.0,10.0,-999,0.00,,,0.00,,2014-01-21 21:22:00,
2014-01-21 15:43:00,11.0,-99.9,-100.00,NW,312,3.0,6.0,-999,0.00,,,0.00,,2014-01-21 21:43:00,
2014-01-21 15:53:00,11.0,-99.9,-100.00,NW,312,3.0,6.0,-999,0.00,,,0.00,,2014-01-21 21:53:00,
2014-01-21 16:13:00,11.0,-99.9,-100.00,NNW,345,2.0,5.0,-999,0.00,,,0.00,,2014-01-21 22:13:00,
2014-01-21 16:23:00,11.0,-99.9,-100.00,NNW,345,2.0,5.0,-999,0.00,,,0.00,,2014-01-21 22:23:00,
2014-01-21 16:43:00,11.0,-99.9,-100.00,NW,315,2.0,4.0,-999,0.00,,,0.00,,2014-01-21 22:43:00,
2014-01-21 16:53:00,11.0,-99.9,-100.00,NW,315,2.0,4.0,-999,0.00,,,0.00,,2014-01-21 22:53:00,
2014-01-21 17:12:00,12.0,-99.9,-100.00,NNW,334,3.0,5.0,-999,0.00,,,0.00,,2014-01-21 23:12:00,
2014-01-21 17:23:00,12.0,-99.9,-100.00,NNW,334,3.0,5.0,-999,0.00,,,0.00,,2014-01-21 23:23:00,
2014-01-21 17:42:00,11.0,-99.9,-100.00,North,351,2.0,3.0,-999,0.00,,,0.00,,2014-01-21 23:42:00,
2014-01-21 17:52:00,11.0,-99.9,-100.00,North,351,2.0,3.0,-999,0.00,,,0.00,,2014-01-21 23:52:00,
2014-01-21 18:11:00,11.0,-99.9,-100.00,NNW,347,1.0,3.0,-999,0.00,,,0.00,,2014-01-22 00:11:00,
2014-01-21 18:22:00,11.0,-99.9,-100.00,NNW,347,1.0,3.0,-999,0.00,,,0.00,,2014-01-22 00:22:00,
2014-01-21 18:42:00,11.0,-99.9,-100.00,South,187,0.0,1.0,-999,0.00,,,0.00,,2014-01-22 00:42:00,
2014-01-21 18:52:00,11.0,-99.9,-100.00,South,187,0.0,1.0,-999,0.00,,,0.00,,2014-01-22 00:52:00,
2014-01-21 19:12:00,11.0,-99.9,-100.00,SSE,163,2.0,2.0,-999,0.00,,,0.00,,2014-01-22 01:12:00,
2014-01-21 19:22:00,11.0,-99.9,-100.00,SSE,163,2.0,2.0,-999,0.00,,,0.00,,2014-01-22 01:22:00,
2014-01-21 19:42:00,11.0,-99.9,-100.00,SSE,149,3.0,4.0,-999,0.00,,,0.00,,2014-01-22 01:42:00,
2014-01-21 19:52:00,11.0,-99.9,-100.00,SSE,149,3.0,4.0,-999,0.00,,,0.00,,2014-01-22 01:52:00,
2014-01-21 20:11:00,11.0,-99.9,-100.00,SE,141,6.0,8.0,-999,0.00,,,0.00,,2014-01-22 02:11:00,
2014-01-21 20:22:00,11.0,-99.9,-100.00,SE,141,6.0,8.0,-999,0.00,,,0.00,,2014-01-22 02:22:00,
2014-01-21 20:42:00,11.0,-99.9,-100.00,SSE,147,5.0,6.0,-999,0.00,,,0.00,,2014-01-22 02:42:00,
2014-01-21 20:52:00,11.0,-99.9,-100.00,SSE,147,5.0,6.0,-999,0.00,,,0.00,,2014-01-22 02:52:00,
2014-01-21 21:12:00,11.0,-99.9,-100.00,SSE,165,4.0,5.0,-999,0.00,,,0.00,,2014-01-22 03:12:00,
2014-01-21 21:22:00,11.0,-99.9,-100.00,SSE,165,4.0,5.0,-999,0.00,,,0.00,,2014-01-22 03:22:00,
2014-01-21 21:44:00,11.0,-99.9,-100.00,South,171,3.0,4.0,-999,0.00,,,0.00,,2014-01-22 03:44:00,
2014-01-21 21:54:00,11.0,-99.9,-100.00,South,171,3.0,4.0,-999,0.00,,,0.00,,2014-01-22 03:54:00,
2014-01-21 22:13:00,12.0,-99.9,-100.00,South,182,4.0,5.0,-999,0.00,,,0.00,,2014-01-22 04:13:00,
2014-01-21 22:23:00,12.0,-99.9,-100.00,South,182,4.0,5.0,-999,0.00,,,0.00,,2014-01-22 04:23:00,
2014-01-21 22:43:00,12.0,-99.9,-100.00,South,177,4.0,6.0,-999,0.00,,,0.00,,2014-01-22 04:43:00,
2014-01-21 22:53:00,12.0,-99.9,-100.00,South,177,4.0,6.0,-999,0.00,,,0.00,,2014-01-22 04:53:00,
2014-01-21 23:13:00,12.0,-99.9,-100.00,SSE,163,4.0,5.0,-999,0.00,,,0.00,,2014-01-22 05:13:00,
2014-01-21 23:22:00,12.0,-99.9,-100.00,SSE,163,4.0,5.0,-999,0.00,,,0.00,,2014-01-22 05:22:00,
2014-01-21 23:43:00,12.0,-99.9,-100.00,South,179,4.0,5.0,-999,0.00,,,0.00,,2014-01-22 05:43:00,
2014-01-21 23:53:00,12.0,-99.9,-100.00,South,179,4.0,5.0,-999,0.00,,,0.00,,2014-01-22 05:53:00,